Friday, May 25, 2018, 8:59 AM EDT
Back to Local

KFMH, Otis Air National Guard Base

Location: Mashpee, MA, United States Lat: 41.65
Local Time: 8:59 AM EDT (12:59 GMT) Lon: -70.517
Time Zone: US/Eastern Elev: 131 ft

Show me the last for .
Show Coded

Time T Td Feel RH Dir Speed Gust Alt SLP Vis Weather Sky Remarks
2018-05-25 08:35 63 54 - 72 240° 13 - 29.99 - 10 CLR None
2018-05-25 08:15 63 54 - 72 240° 10 - 30.00 - 10 CLR None
2018-05-25 07:55 61 54 - 77 250° 13 - 30.00 - 10 CLR None
2018-05-25 07:15 57 54 - 87 250° 10 - 30.01 - 10 CLR None
2018-05-25 06:55 57 54 - 87 240° 8 - 30.01 - 10 CLR None
2018-05-25 06:35 55 52 - 87 240° 10 - 30.01 - 10 CLR None
2018-05-25 06:15 55 52 - 87 240° 10 - 30.01 - 10 CLR None
2018-05-25 05:55 54 52 - 93 240° 7 - 30.02 - 10 CLR None
2018-05-25 05:35 52 52 - 100 240° 7 - 30.02 - 10 CLR None
2018-05-25 05:15 52 52 - 100 240° 8 - 30.01 - 10 None
2018-05-25 04:55 52 52 - 100 230° 8 - 30.01 - 10 CLR None
2018-05-25 04:35 52 52 - 100 230° 9 - 30.02 - 10 None
2018-05-25 04:15 52 52 - 100 220° 8 - 30.03 - 10 None
2018-05-25 03:55 52 52 - 100 230° 7 - 30.03 - 10 SCT004 None
2018-05-25 03:35 52 52 - 100 240° 9 - 30.04 - 10 None
2018-05-25 03:15 52 52 - 100 240° 12 - 30.05 - 10 None
2018-05-25 02:55 50 50 46 100 240° 9 - 30.06 - 10 SCT003 None
2018-05-25 02:35 50 50 47 100 240° 8 - 30.07 - 10 None
2018-05-25 02:15 50 50 47 100 230° 7 - 30.07 - 10 None
2018-05-25 01:55 50 50 46 100 230° 10 - 30.08 - 10 None
2018-05-25 01:35 50 50 47 100 240° 7 - 30.09 - 10 None
2018-05-25 01:15 50 50 47 100 230° 8 - 30.09 - 10 None
2018-05-25 00:55 50 50 46 100 230° 9 - 30.09 - 10 FEW004 None
2018-05-25 00:35 50 50 46 100 230° 12 - 30.10 - 10 BKN004 None
2018-05-25 00:15 50 50 47 100 230° 8 - 30.10 - 10 OVC004 None
2018-05-24 23:55 50 50 46 100 220° 10 - 30.11 - 10 OVC006 None
2018-05-24 23:35 50 50 47 100 220° 7 - 30.12 - 10 OVC006 None
2018-05-24 23:15 50 50 48 100 220° 6 - 30.12 - 10 OVC006 None
2018-05-24 22:55 50 50 47 100 220° 8 - 30.12 - 10 None
2018-05-24 22:35 50 50 47 100 210° 8 - 30.12 - 10 None
2018-05-24 22:15 50 50 47 100 210° 8 - 30.13 - 10 None
2018-05-24 21:55 52 48 - 87 210° 8 - 30.14 - 10 CLR None
2018-05-24 21:35 52 48 - 87 210° 9 - 30.14 - 10 CLR None
2018-05-24 21:15 52 48 - 87 210° 12 - 30.14 - 10 CLR None
2018-05-24 20:55 52 46 - 81 200° 13 - 30.14 - 10 CLR None
2018-05-24 20:35 54 46 - 76 190° 12 17 30.13 - 10 CLR None
2018-05-24 20:15 54 45 - 71 190° 12 - 30.13 - 10 CLR None
2018-05-24 19:55 54 45 - 71 180° 10 17 30.13 - 10 CLR None
2018-05-24 19:35 55 45 - 66 180° 15 - 30.13 - 10 CLR None
2018-05-24 19:15 55 45 - 66 180° 12 17 30.13 - 10 CLR None
2018-05-24 18:55 55 43 - 62 170° 14 20 30.13 - 10 CLR None
2018-05-24 18:35 57 43 - 58 170° 14 21 30.13 - 10 CLR None
2018-05-24 18:15 57 41 - 54 160° 15 - 30.13 - 10 CLR None
2018-05-24 17:55 59 41 - 51 160° 15 21 30.12 - 10 CLR None
2018-05-24 17:35 59 43 - 54 160° 15 21 30.12 - 10 CLR None
2018-05-24 17:15 59 46 - 62 160° 13 - 30.12 - 10 CLR None
2018-05-24 16:55 59 46 - 62 150° 15 - 30.13 - 10 CLR None
2018-05-24 16:35 59 45 - 58 140° 14 - 30.13 - 10 CLR None
2018-05-24 16:15 59 45 - 58 140° 14 21 30.13 - 10 CLR None
2018-05-24 15:55 59 43 - 54 150° 15 - 30.13 - 10 CLR None
2018-05-24 15:35 61 43 - 51 140° 17 - 30.13 - 10 CLR None
2018-05-24 14:35 59 41 - 51 130° 18 - 30.14 - 10 CLR None
2018-05-24 14:15 61 41 - 48 140° 17 - 30.14 - 10 CLR None
2018-05-24 13:55 61 43 - 51 130° 17 - 30.14 - 10 CLR None
2018-05-24 13:35 61 43 - 51 150° 17 - 30.14 - 10 CLR None
2018-05-24 13:15 61 45 - 55 140° 16 - 30.14 - 10 CLR None
2018-05-24 12:55 61 45 - 55 130° 16 - 30.14 - 10 CLR None
2018-05-24 12:35 61 45 - 55 130° 14 - 30.14 - 10 CLR None
2018-05-24 12:15 61 45 - 55 120° 12 - 30.14 - 10 CLR None
2018-05-24 11:55 61 45 - 55 140° 12 - 30.14 - 10 CLR None
2018-05-24 11:35 61 45 - 55 150° 14 - 30.14 - 10 FEW028 None
2018-05-24 11:15 61 46 - 59 160° 10 - 30.14 - 10 BKN028 None
2018-05-24 10:55 61 48 - 63 150° 12 - 30.13 - 10 FEW026 SCT030 None
2018-05-24 10:35 61 48 - 63 Variable 7 14 30.13 - 10 BKN024 None
2018-05-24 10:15 61 50 - 67 Variable 5 13 30.13 - 10 OVC023 None
2018-05-24 09:55 61 50 - 67 100° 8 - 30.12 - 10 BKN020 None
2018-05-24 09:35 59 52 - 77 60° 5 - 30.12 - 10 BKN015 None
2018-05-24 09:15 57 54 - 87 50° 6 - 30.11 - 10 OVC013 None

Support USWX by starting your Amazon purchase here.